createdAt,value
2018-07-30T00:01:32.280Z,99312.12
2018-07-30T00:04:01.256Z,99303.61
2018-07-30T00:06:30.281Z,99308.81
2018-07-30T00:08:59.259Z,99304.43
2018-07-30T00:11:28.219Z,99301.95
2018-07-30T00:13:57.248Z,99308.53
2018-07-30T00:16:26.274Z,99308.26
2018-07-30T00:18:55.251Z,99308.00
2018-07-30T00:21:24.322Z,99313.48
2018-07-30T00:23:53.345Z,99310.17
2018-07-30T00:26:22.359Z,99309.08
2018-07-30T00:28:51.367Z,99306.36
2018-07-30T00:31:20.649Z,99310.17
2018-07-30T00:33:49.664Z,99294.84
2018-07-30T00:36:18.631Z,99292.34
2018-07-30T00:38:47.782Z,99293.18
2018-07-30T00:41:16.752Z,99301.41
2018-07-30T00:43:45.736Z,99305.81
2018-07-30T00:46:14.700Z,99300.32
2018-07-30T00:48:43.682Z,99306.35
2018-07-30T00:51:12.705Z,99302.23
2018-07-30T00:53:41.714Z,99308.27
2018-07-30T00:56:10.667Z,99308.28
2018-07-30T00:58:39.700Z,99305.27
2018-07-30T01:01:08.720Z,99308.00
2018-07-30T01:03:37.813Z,99308.81
2018-07-30T01:06:06.900Z,99304.98
2018-07-30T01:08:35.883Z,99303.05
2018-07-30T01:11:05.274Z,99314.29
2018-07-30T01:13:34.308Z,99316.22
2018-07-30T01:16:03.324Z,99322.25
2018-07-30T01:18:32.384Z,99315.95
2018-07-30T01:21:01.408Z,99326.66
2018-07-30T01:23:30.376Z,99317.60
2018-07-30T01:26:03.458Z,99317.05
2018-07-30T01:28:32.420Z,99316.77
2018-07-30T01:31:01.446Z,99311.28
2018-07-30T01:33:30.476Z,99311.02
2018-07-30T01:35:59.530Z,99316.22
2018-07-30T01:38:28.556Z,99321.14
2018-07-30T01:40:57.543Z,99319.22
2018-07-30T01:43:26.551Z,99317.88
2018-07-30T01:45:55.596Z,99316.50
2018-07-30T01:48:24.552Z,99315.65
2018-07-30T01:50:53.908Z,99315.65
2018-07-30T01:53:22.891Z,99316.20
2018-07-30T01:55:51.929Z,99308.80
2018-07-30T01:58:20.948Z,99312.08
2018-07-30T02:00:49.976Z,99316.74
2018-07-30T02:03:18.964Z,99316.20
2018-07-30T02:05:47.931Z,99316.75
2018-07-30T02:08:16.904Z,99323.63
2018-07-30T02:10:45.864Z,99320.60
2018-07-30T02:13:14.894Z,99318.41
2018-07-30T02:15:44.041Z,99320.59
2018-07-30T02:18:13.246Z,99317.30
2018-07-30T02:20:42.333Z,99316.20
2018-07-30T02:23:11.324Z,99318.41
2018-07-30T02:25:40.327Z,99308.54
2018-07-30T02:28:09.377Z,99313.48
2018-07-30T02:30:38.412Z,99312.11
2018-07-30T02:33:07.461Z,99303.88
2018-07-30T02:35:36.457Z,99301.95
2018-07-30T02:38:05.617Z,99300.30
2018-07-30T02:40:34.594Z,99306.87
2018-07-30T02:43:03.679Z,99307.69
2018-07-30T02:45:32.705Z,99303.33
2018-07-30T02:48:01.757Z,99306.88
2018-07-30T02:50:30.729Z,99309.34
2018-07-30T02:52:59.781Z,99307.97
2018-07-30T02:55:28.869Z,99308.52
2018-07-30T02:57:57.852Z,99302.48
2018-07-30T03:00:26.860Z,99310.69
2018-07-30T03:02:55.837Z,99310.38
2018-07-30T03:05:24.796Z,99304.61
2018-07-30T03:07:53.885Z,99306.79
2018-07-30T03:10:22.868Z,99309.53
2018-07-30T03:12:51.948Z,99307.08
2018-07-30T03:15:21.000Z,99311.18
2018-07-30T03:17:50.045Z,99321.58
2018-07-30T03:20:19.056Z,99321.84
2018-07-30T03:22:48.010Z,99321.02
2018-07-30T03:25:17.109Z,99315.27
2018-07-30T03:27:46.072Z,99318.31
2018-07-30T03:30:15.164Z,99321.86
2018-07-30T03:32:44.124Z,99317.22
2018-07-30T03:35:13.083Z,99325.45
2018-07-30T03:37:42.120Z,99324.91
2018-07-30T03:40:11.203Z,99335.91
2018-07-30T03:42:40.200Z,99338.70
2018-07-30T03:45:09.960Z,99342.27
2018-07-30T03:47:39.033Z,99343.92
2018-07-30T03:50:08.212Z,99346.95
2018-07-30T03:52:37.338Z,99347.48
2018-07-30T03:55:06.498Z,99353.27
2018-07-30T03:57:35.585Z,99362.86
2018-07-30T04:00:05.904Z,99359.59
2018-07-30T04:02:34.841Z,99363.69
2018-07-30T04:05:03.949Z,99365.62
2018-07-30T04:07:32.926Z,99366.14
2018-07-30T04:10:02.096Z,99371.36
2018-07-30T04:12:31.091Z,99374.13
2018-07-30T04:15:00.169Z,99374.94
2018-07-30T04:17:29.329Z,99378.79
2018-07-30T04:19:58.409Z,99376.58
2018-07-30T04:22:27.506Z,99379.34
2018-07-30T04:24:56.542Z,99377.95
2018-07-30T04:27:25.587Z,99378.48
2018-07-30T04:29:54.679Z,99373.28
2018-07-30T04:32:23.663Z,99377.14
2018-07-30T04:34:52.736Z,99373.86
2018-07-30T04:37:22.812Z,99367.28
2018-07-30T04:39:51.820Z,99365.34
2018-07-30T04:42:20.839Z,99371.41
2018-07-30T04:44:49.997Z,99370.03
2018-07-30T04:47:18.963Z,99367.03
2018-07-30T04:49:48.041Z,99366.74
2018-07-30T04:52:17.132Z,99365.90
2018-07-30T04:54:46.128Z,99365.08
2018-07-30T04:57:15.310Z,99358.72
2018-07-30T04:59:44.303Z,99361.14
2018-07-30T05:02:13.296Z,99369.95
2018-07-30T05:04:42.317Z,99365.17
2018-07-30T05:07:11.453Z,99366.07
2018-07-30T05:09:42.247Z,99366.87
2018-07-30T05:12:11.320Z,99360.05
2018-07-30T05:14:40.363Z,99362.28
2018-07-30T05:17:09.606Z,99365.89
2018-07-30T05:19:38.711Z,99367.98
2018-07-30T05:22:07.752Z,99366.64
2018-07-30T05:24:36.746Z,99367.10
2018-07-30T05:27:05.760Z,99367.44
2018-07-30T05:29:34.885Z,99376.02
2018-07-30T05:32:03.985Z,99372.16
2018-07-30T05:34:32.998Z,99367.70
2018-07-30T05:37:01.984Z,99374.49
2018-07-30T05:39:30.997Z,99382.64
2018-07-30T05:42:00.034Z,99384.95
2018-07-30T05:44:29.010Z,99390.31
2018-07-30T05:46:58.044Z,99396.91
2018-07-30T05:49:27.061Z,99399.32
2018-07-30T05:51:56.057Z,99398.09
2018-07-30T05:54:25.036Z,99400.42
2018-07-30T05:56:53.981Z,99398.27
2018-07-30T05:59:23.009Z,99399.77
2018-07-30T06:01:52.016Z,99397.66
2018-07-30T06:04:21.073Z,99406.66
2018-07-30T06:06:50.152Z,99409.78
2018-07-30T06:09:19.107Z,99408.71
2018-07-30T06:11:48.092Z,99411.91
2018-07-30T06:14:17.156Z,99415.50
2018-07-30T06:16:46.181Z,99413.91
2018-07-30T06:19:15.228Z,99416.80
2018-07-30T06:21:44.276Z,99417.91
2018-07-30T06:24:13.360Z,99424.25
2018-07-30T06:26:42.497Z,99422.70
2018-07-30T06:29:11.467Z,99420.29
2018-07-30T06:31:40.436Z,99419.23
2018-07-30T06:34:09.462Z,99424.40
2018-07-30T06:36:38.473Z,99426.77
2018-07-30T06:39:09.661Z,99430.71
2018-07-30T06:41:38.832Z,99431.92
2018-07-30T06:44:07.858Z,99428.07
2018-07-30T06:46:37.119Z,99434.61
2018-07-30T06:49:06.778Z,99440.64
2018-07-30T06:51:35.800Z,99433.35
2018-07-30T06:54:04.789Z,99434.19
2018-07-30T06:56:33.938Z,99437.48
2018-07-30T06:59:02.969Z,99430.33
2018-07-30T07:01:32.017Z,99432.81
2018-07-30T07:04:01.018Z,99438.78
2018-07-30T07:06:30.078Z,99432.80
2018-07-30T07:08:59.109Z,99437.74
2018-07-30T07:11:28.145Z,99439.08
2018-07-30T07:13:57.172Z,99433.53
2018-07-30T07:16:26.244Z,99438.16
2018-07-30T07:18:55.524Z,99433.58
2018-07-30T07:21:24.619Z,99432.10
2018-07-30T07:23:53.528Z,99431.38
2018-07-30T07:26:22.545Z,99429.39
2018-07-30T07:28:51.548Z,99433.20
2018-07-30T07:31:20.576Z,99429.53
2018-07-30T07:33:49.710Z,99425.55
2018-07-30T07:36:18.893Z,99428.84
2018-07-30T07:38:47.936Z,99433.82
2018-07-30T07:41:16.978Z,99435.98
2018-07-30T07:43:46.021Z,99436.06
2018-07-30T07:46:15.127Z,99433.69
2018-07-30T07:48:44.158Z,99436.51
2018-07-30T07:51:13.263Z,99435.70
2018-07-30T07:53:42.212Z,99439.27
2018-07-30T07:56:11.331Z,99433.84
2018-07-30T07:58:40.333Z,99437.45
2018-07-30T08:01:09.318Z,99433.84
2018-07-30T08:03:38.445Z,99438.25
2018-07-30T08:06:07.466Z,99435.59
2018-07-30T08:08:36.529Z,99428.48
2018-07-30T08:11:05.635Z,99432.16
2018-07-30T08:13:34.728Z,99428.50
2018-07-30T08:16:03.677Z,99431.12
2018-07-30T08:18:32.671Z,99433.61
2018-07-30T08:21:01.956Z,99434.36
2018-07-30T08:23:30.947Z,99438.73
2018-07-30T08:25:59.926Z,99434.96
2018-07-30T08:28:28.878Z,99441.91
2018-07-30T08:30:57.957Z,99436.53
2018-07-30T08:33:26.954Z,99438.86
2018-07-30T08:35:55.920Z,99441.62
2018-07-30T08:38:24.997Z,99442.76
2018-07-30T08:40:53.995Z,99441.80
2018-07-30T08:43:22.960Z,99444.48
2018-07-30T08:45:51.956Z,99440.20
2018-07-30T08:48:20.950Z,99436.44
2018-07-30T08:50:49.988Z,99438.98
2018-07-30T08:53:19.007Z,99434.73
2018-07-30T08:55:48.000Z,99435.17
2018-07-30T08:58:16.961Z,99435.90
2018-07-30T09:00:45.948Z,99430.50
2018-07-30T09:03:14.957Z,99432.74
2018-07-30T09:05:44.001Z,99434.77
2018-07-30T09:08:13.005Z,99430.60
2018-07-30T09:10:42.098Z,99430.35
2018-07-30T09:13:11.120Z,99423.54
2018-07-30T09:15:40.141Z,99424.22
2018-07-30T09:18:09.219Z,99424.25
2018-07-30T09:20:38.212Z,99411.17
2018-07-30T09:23:07.325Z,99412.22
2018-07-30T09:25:36.375Z,99413.86
2018-07-30T09:28:05.636Z,99417.20
2018-07-30T09:30:34.593Z,99428.33
2018-07-30T09:33:03.781Z,99433.64
2018-07-30T09:35:32.733Z,99432.36
2018-07-30T09:38:01.765Z,99432.08
2018-07-30T09:40:30.788Z,99434.74
2018-07-30T09:42:59.756Z,99428.83
2018-07-30T09:45:28.776Z,99428.52
2018-07-30T09:47:57.852Z,99422.77
2018-07-30T09:50:26.975Z,99421.80
2018-07-30T09:52:55.972Z,99412.98
2018-07-30T09:55:24.997Z,99411.92
2018-07-30T09:57:53.968Z,99401.19
2018-07-30T10:00:28.130Z,99405.95
2018-07-30T10:02:57.245Z,99408.62
2018-07-30T10:05:26.243Z,99418.40
2018-07-30T10:07:55.273Z,99410.97
2018-07-30T10:10:24.293Z,99410.41
2018-07-30T10:12:53.371Z,99405.86
2018-07-30T10:15:22.373Z,99396.64
2018-07-30T10:17:51.517Z,99389.97
2018-07-30T10:20:20.464Z,99383.91
2018-07-30T10:22:49.471Z,99390.36
2018-07-30T10:25:18.448Z,99390.05
2018-07-30T10:27:47.404Z,99385.91
2018-07-30T10:30:16.433Z,99389.98
2018-07-30T10:32:45.441Z,99388.80
2018-07-30T10:35:14.471Z,99392.71
2018-07-30T10:37:43.470Z,99394.13
2018-07-30T10:40:12.474Z,99400.13
2018-07-30T10:42:41.512Z,99400.48
2018-07-30T10:45:10.487Z,99407.49
2018-07-30T10:47:39.533Z,99396.77
2018-07-30T10:50:08.545Z,99413.53
2018-07-30T10:52:37.631Z,99419.59
2018-07-30T10:55:06.724Z,99412.38
2018-07-30T10:57:35.777Z,99404.74
2018-07-30T11:00:04.791Z,99410.42
2018-07-30T11:02:33.748Z,99411.42
2018-07-30T11:05:02.785Z,99415.04
2018-07-30T11:07:31.829Z,99410.16
2018-07-30T11:10:00.883Z,99403.38
2018-07-30T11:12:29.901Z,99400.56
2018-07-30T11:14:58.943Z,99398.69
2018-07-30T11:17:27.891Z,99402.14
2018-07-30T11:19:56.970Z,99398.45
2018-07-30T11:22:26.028Z,99399.50
2018-07-30T11:24:55.025Z,99402.05
2018-07-30T11:27:24.064Z,99401.08
2018-07-30T11:29:53.075Z,99401.99
2018-07-30T11:32:22.141Z,99406.77
2018-07-30T11:34:51.157Z,99398.70
2018-07-30T11:37:20.269Z,99403.12
2018-07-30T11:39:49.262Z,99401.70
2018-07-30T11:42:18.231Z,99411.22
2018-07-30T11:44:47.200Z,99414.03
2018-07-30T11:47:16.176Z,99419.19
2018-07-30T11:49:45.179Z,99419.75
2018-07-30T11:52:14.275Z,99418.11
2018-07-30T11:54:43.347Z,99420.05
2018-07-30T11:57:12.358Z,99409.98
2018-07-30T11:59:41.374Z,99408.88
2018-07-30T12:02:10.422Z,99404.52
2018-07-30T12:04:39.384Z,99393.73
2018-07-30T12:07:08.352Z,99392.13
2018-07-30T12:09:37.320Z,99386.75
2018-07-30T12:12:06.416Z,99383.87
2018-07-30T12:14:35.375Z,99389.27
2018-07-30T12:17:04.445Z,99380.62
2018-07-30T12:19:33.549Z,99371.77
2018-07-30T12:22:02.602Z,99366.79
2018-07-30T12:24:31.638Z,99367.84
2018-07-30T12:27:00.646Z,99366.79
2018-07-30T12:29:29.787Z,99363.53
2018-07-30T12:31:58.809Z,99371.72
2018-07-30T12:34:27.756Z,99381.52
2018-07-30T12:36:56.858Z,99385.34
2018-07-30T12:39:25.908Z,99391.27
2018-07-30T12:41:54.910Z,99384.44
2018-07-30T12:44:24.001Z,99385.75
2018-07-30T12:46:52.996Z,99389.25
2018-07-30T12:49:22.019Z,99395.80
2018-07-30T12:51:51.090Z,99390.20
2018-07-30T12:54:20.066Z,99383.23
2018-07-30T12:56:49.012Z,99377.09
2018-07-30T12:59:18.051Z,99377.87
2018-07-30T13:01:47.186Z,99374.75
2018-07-30T13:04:16.237Z,99371.97
2018-07-30T13:06:45.459Z,99375.25
2018-07-30T13:09:14.518Z,99376.08
2018-07-30T13:11:43.500Z,99380.59
2018-07-30T13:14:12.567Z,99382.09
2018-07-30T13:16:41.589Z,99379.25
2018-07-30T13:19:10.713Z,99381.18
2018-07-30T13:21:39.732Z,99389.47
2018-07-30T13:24:08.873Z,99388.36
2018-07-30T13:26:37.948Z,99392.03
2018-07-30T13:29:06.834Z,99386.48
2018-07-30T13:31:35.797Z,99390.16
2018-07-30T13:34:04.745Z,99391.48
2018-07-30T13:36:33.785Z,99387.36
2018-07-30T13:39:02.848Z,99393.32
2018-07-30T13:41:31.913Z,99388.66
2018-07-30T13:44:00.868Z,99391.87
2018-07-30T13:46:29.990Z,99391.95
2018-07-30T13:48:59.054Z,99385.32
2018-07-30T13:51:28.025Z,99376.30
2018-07-30T13:53:56.996Z,99373.72
2018-07-30T13:56:26.017Z,99367.50
2018-07-30T13:58:55.046Z,99357.46
2018-07-30T14:01:24.017Z,99351.31
2018-07-30T14:03:53.193Z,99344.63
2018-07-30T14:06:22.342Z,99342.88
2018-07-30T14:08:51.379Z,99342.24
2018-07-30T14:11:20.475Z,99351.98
2018-07-30T14:13:49.501Z,99358.86
2018-07-30T14:16:18.681Z,99372.83
2018-07-30T14:18:47.699Z,99383.11
2018-07-30T14:21:16.666Z,99380.00
2018-07-30T14:23:45.785Z,99375.59
2018-07-30T14:26:14.885Z,99363.92
2018-07-30T14:28:43.962Z,99356.14
2018-07-30T14:31:13.097Z,99352.98
2018-07-30T14:33:42.152Z,99353.58
2018-07-30T14:36:11.113Z,99353.60
2018-07-30T14:38:40.069Z,99352.38
2018-07-30T14:41:09.096Z,99351.95
2018-07-30T14:43:38.133Z,99349.82
2018-07-30T14:46:07.210Z,99345.10
2018-07-30T14:48:36.246Z,99346.75
2018-07-30T14:51:05.324Z,99352.47
2018-07-30T14:53:34.466Z,99357.87
2018-07-30T14:56:03.541Z,99358.27
2018-07-30T14:58:32.525Z,99356.89
2018-07-30T15:01:01.897Z,99359.02
2018-07-30T15:03:30.868Z,99364.48
2018-07-30T15:05:59.807Z,99369.14
2018-07-30T15:08:28.833Z,99370.72
2018-07-30T15:10:57.804Z,99374.27
2018-07-30T15:13:26.827Z,99368.75
2018-07-30T15:15:55.941Z,99367.20
2018-07-30T15:18:24.927Z,99370.03
2018-07-30T15:20:53.992Z,99372.60
2018-07-30T15:23:23.024Z,99363.37
2018-07-30T15:25:52.117Z,99361.30
2018-07-30T15:28:21.049Z,99360.63
2018-07-30T15:30:50.148Z,99347.55
2018-07-30T15:33:19.213Z,99352.83
2018-07-30T15:35:48.224Z,99354.06
2018-07-30T15:38:17.248Z,99353.36
2018-07-30T15:40:46.265Z,99351.72
2018-07-30T15:43:15.363Z,99357.48
2018-07-30T15:45:44.412Z,99355.19
2018-07-30T15:48:13.424Z,99359.19
2018-07-30T15:50:42.464Z,99365.52
2018-07-30T15:53:11.476Z,99366.48
2018-07-30T15:55:40.557Z,99375.16
2018-07-30T15:58:09.501Z,99384.14
2018-07-30T16:00:38.502Z,99384.49
2018-07-30T16:03:07.557Z,99390.30
2018-07-30T16:05:36.596Z,99395.02
2018-07-30T16:08:05.662Z,99402.19
2018-07-30T16:10:34.677Z,99409.39
2018-07-30T16:13:03.927Z,99406.38
2018-07-30T16:15:32.997Z,99412.42
2018-07-30T16:18:01.972Z,99414.38
2018-07-30T16:20:30.955Z,99418.78
2018-07-30T16:22:59.949Z,99427.32
2018-07-30T16:25:28.960Z,99422.92
2018-07-30T16:27:57.972Z,99417.13
2018-07-30T16:30:27.113Z,99419.06
2018-07-30T16:32:56.127Z,99417.69
2018-07-30T16:35:25.176Z,99424.30
2018-07-30T16:37:54.253Z,99420.70
2018-07-30T16:40:23.458Z,99427.62
2018-07-30T16:42:52.508Z,99421.82
2018-07-30T16:45:21.495Z,99424.02
2018-07-30T16:47:50.507Z,99432.63
2018-07-30T16:50:19.588Z,99436.30
2018-07-30T16:52:48.689Z,99437.94
2018-07-30T16:55:17.702Z,99442.63
2018-07-30T16:57:46.709Z,99453.44
2018-07-30T17:00:15.841Z,99449.04
2018-07-30T17:02:44.939Z,99448.76
2018-07-30T17:05:14.072Z,99442.42
2018-07-30T17:07:43.065Z,99443.27
2018-07-30T17:10:12.147Z,99440.77
2018-07-30T17:12:41.096Z,99432.28
2018-07-30T17:15:10.034Z,99439.46
2018-07-30T17:17:39.130Z,99440.34
2018-07-30T17:20:11.398Z,99448.66
2018-07-30T17:22:40.912Z,99448.67
2018-07-30T17:25:10.089Z,99451.74
2018-07-30T17:27:39.137Z,99458.64
2018-07-30T17:30:09.266Z,99454.83
2018-07-30T17:32:38.361Z,99473.27
2018-07-30T17:35:07.850Z,99464.20
2018-07-30T17:37:36.908Z,99467.27
2018-07-30T17:40:07.365Z,99466.72
2018-07-30T17:42:36.471Z,99468.37
2018-07-30T17:45:06.281Z,99469.23
2018-07-30T17:47:35.252Z,99472.54
2018-07-30T17:50:04.398Z,99480.52
2018-07-30T17:52:33.390Z,99480.25
2018-07-30T17:55:02.372Z,99480.25
2018-07-30T17:57:31.460Z,99479.42
2018-07-30T18:00:00.481Z,99469.25
2018-07-30T18:02:29.532Z,99473.92
2018-07-30T18:04:58.930Z,99481.35
2018-07-30T18:07:27.875Z,99478.05
2018-07-30T18:09:56.937Z,99489.05
2018-07-30T18:12:25.992Z,99487.12
2018-07-30T18:14:55.047Z,99480.56
2018-07-30T18:17:24.037Z,99487.16
2018-07-30T18:19:53.096Z,99485.23
2018-07-30T18:22:22.124Z,99476.98
2018-07-30T18:24:51.244Z,99486.89
2018-07-30T18:27:20.197Z,99487.16
2018-07-30T18:29:49.226Z,99498.16
2018-07-30T18:32:18.221Z,99508.38
2018-07-30T18:34:47.231Z,99508.89
2018-07-30T18:37:16.211Z,99512.77
2018-07-30T18:39:45.325Z,99508.09
2018-07-30T18:42:14.360Z,99516.64
2018-07-30T18:44:43.325Z,99513.89
2018-07-30T18:47:12.316Z,99510.59
2018-07-30T18:49:41.577Z,99508.39
2018-07-30T18:52:10.535Z,99502.34
2018-07-30T18:54:39.556Z,99501.52
2018-07-30T18:57:08.531Z,99509.77
2018-07-30T18:59:37.699Z,99511.73
2018-07-30T19:02:06.767Z,99524.38
2018-07-30T19:04:35.755Z,99526.02
2018-07-30T19:07:04.735Z,99524.93
2018-07-30T19:09:33.702Z,99526.58
2018-07-30T19:12:02.801Z,99523.02
2018-07-30T19:14:31.786Z,99527.41
2018-07-30T19:17:00.757Z,99531.80
2018-07-30T19:19:29.809Z,99533.74
2018-07-30T19:21:58.985Z,99527.70
2018-07-30T19:24:28.042Z,99530.67
2018-07-30T19:26:57.061Z,99527.66
2018-07-30T19:29:26.180Z,99530.94
2018-07-30T19:31:55.205Z,99530.94
2018-07-30T19:34:24.196Z,99521.87
2018-07-30T19:36:53.241Z,99521.85
2018-07-30T19:39:22.288Z,99519.11
2018-07-30T19:41:51.345Z,99523.77
2018-07-30T19:44:20.412Z,99525.14
2018-07-30T19:46:49.459Z,99530.90
2018-07-30T19:49:18.452Z,99524.84
2018-07-30T19:51:47.491Z,99534.42
2018-07-30T19:54:16.592Z,99538.53
2018-07-30T19:56:45.588Z,99539.62
2018-07-30T19:59:14.672Z,99532.76
2018-07-30T20:01:43.659Z,99532.20
2018-07-30T20:04:12.754Z,99534.94
2018-07-30T20:06:41.744Z,99531.34
2018-07-30T20:09:12.366Z,99523.35
2018-07-30T20:11:41.352Z,99525.27
2018-07-30T20:14:10.386Z,99525.27
2018-07-30T20:16:39.469Z,99535.67
2018-07-30T20:19:08.597Z,99531.27
2018-07-30T20:21:37.632Z,99537.84
2018-07-30T20:24:06.647Z,99538.09
2018-07-30T20:26:35.673Z,99535.63
2018-07-30T20:29:04.671Z,99542.97
2018-07-30T20:31:33.641Z,99543.23
2018-07-30T20:34:02.745Z,99538.55
2018-07-30T20:36:31.765Z,99546.22
2018-07-30T20:39:00.744Z,99550.36
2018-07-30T20:41:29.793Z,99547.00
2018-07-30T20:43:58.833Z,99549.47
2018-07-30T20:46:27.937Z,99557.13
2018-07-30T20:48:57.034Z,99554.36
2018-07-30T20:51:26.189Z,99560.67
2018-07-30T20:53:55.195Z,99561.19
2018-07-30T20:56:24.160Z,99568.02
2018-07-30T20:58:53.148Z,99569.39
2018-07-30T21:01:22.173Z,99569.63
2018-07-30T21:03:51.260Z,99565.23
2018-07-30T21:06:20.288Z,99568.23
2018-07-30T21:08:49.390Z,99569.01
2018-07-30T21:11:18.355Z,99572.29
2018-07-30T21:13:47.348Z,99574.47
2018-07-30T21:16:16.346Z,99576.12
2018-07-30T21:18:45.333Z,99573.13
2018-07-30T21:21:14.356Z,99571.75
2018-07-30T21:23:43.367Z,99581.05
2018-07-30T21:26:12.465Z,99581.88
2018-07-30T21:28:41.481Z,99577.48
2018-07-30T21:31:10.460Z,99571.18
2018-07-30T21:33:39.497Z,99569.81
2018-07-30T21:36:08.470Z,99573.92
2018-07-30T21:38:37.460Z,99561.88
2018-07-30T21:41:06.620Z,99566.53
2018-07-30T21:43:35.965Z,99560.22
2018-07-30T21:46:05.356Z,99561.07
2018-07-30T21:48:34.397Z,99560.53
2018-07-30T21:51:03.393Z,99564.64
2018-07-30T21:53:32.421Z,99566.86
2018-07-30T21:56:01.451Z,99572.63
2018-07-30T21:58:30.431Z,99569.89
2018-07-30T22:00:59.524Z,99569.89
2018-07-30T22:03:28.590Z,99569.03
2018-07-30T22:06:00.381Z,99572.86
2018-07-30T22:08:29.742Z,99579.94
2018-07-30T22:10:58.713Z,99580.20
2018-07-30T22:13:27.688Z,99573.02
2018-07-30T22:15:56.744Z,99572.98
2018-07-30T22:18:25.810Z,99573.22
2018-07-30T22:20:54.886Z,99576.73
2018-07-30T22:23:23.914Z,99568.70
2018-07-30T22:25:52.971Z,99578.80
2018-07-30T22:28:21.993Z,99568.39
2018-07-30T22:30:51.079Z,99572.44
2018-07-30T22:33:20.106Z,99581.95
2018-07-30T22:35:49.147Z,99583.61
2018-07-30T22:38:18.176Z,99583.87
2018-07-30T22:40:47.201Z,99578.42
2018-07-30T22:43:16.181Z,99576.26
2018-07-30T22:45:45.204Z,99579.86
2018-07-30T22:48:14.259Z,99578.80
2018-07-30T22:50:43.225Z,99580.78
2018-07-30T22:53:12.360Z,99576.73
2018-07-30T22:55:41.387Z,99573.77
2018-07-30T22:58:10.452Z,99574.59
2018-07-30T23:00:39.564Z,99577.90
2018-07-30T23:03:08.496Z,99568.08
2018-07-30T23:05:37.517Z,99571.39
2018-07-30T23:08:06.480Z,99566.42
2018-07-30T23:10:35.665Z,99560.89
2018-07-30T23:13:04.680Z,99551.25
2018-07-30T23:15:33.705Z,99559.13
2018-07-30T23:18:02.749Z,99562.34
2018-07-30T23:20:31.720Z,99556.83
2018-07-30T23:23:00.770Z,99566.32
2018-07-30T23:25:29.800Z,99566.29
2018-07-30T23:27:58.827Z,99571.19
2018-07-30T23:30:27.837Z,99563.77
2018-07-30T23:32:56.926Z,99563.20
2018-07-30T23:35:25.977Z,99563.45
2018-07-30T23:37:54.946Z,99563.41
2018-07-30T23:40:24.093Z,99560.93
2018-07-30T23:42:53.121Z,99555.97
2018-07-30T23:45:22.100Z,99554.05
2018-07-30T23:47:51.065Z,99557.01
2018-07-30T23:50:20.101Z,99560.53
2018-07-30T23:52:49.067Z,99567.37
2018-07-30T23:55:18.090Z,99566.80
2018-07-30T23:57:47.104Z,99561.87
